Csl Welland — CFK5151 — position and weather

sailwx.info

Track history (hours):
 
Tides and Currents Weather Stations Pressure Air Temp Water Temp Dewpoint Dewpoint Depression Visibility Wind Speed Wind Dir Waves Ship Positions

Csl Welland

Last reported at 2017-Dec-26 14:43 UTC. Time now 2018-Feb-21 11:23 UTC.
Position N 45°14' W 074°14'.
Warning: this ship's position is 56 days out of date.

Length 226 m.

MMSI: 316000808.

Date/timePositionNaut miles runAvg speedWind from/ knotsBaromVisibWave heightAir tempDewpointWater temp
2017-Dec-26 14:43N 45°14' W 074°14'0 0.0
2017-Dec-26 14:29N 45°14' W 074°14'2 2.4
2017-Dec-26 13:31N 45°14' W 074°11'0 9.0
2017-Dec-26 13:30N 45°14' W 074°11'4 6.4
2017-Dec-26 12:50N 45°13' W 074°05'2 6.7
2017-Dec-26 12:30N 45°14' W 074°02'4 8.1
2017-Dec-26 12:00N 45°16' W 073°57'2 4.7
2017-Dec-26 11:30N 45°18' W 073°56'0 0.2
2017-Dec-26 11:00N 45°18' W 073°56'1 1.0
2017-Dec-26 10:30N 45°19' W 073°55'0 0.7
2017-Dec-26 10:00N 45°19' W 073°55'0 0.4
2017-Dec-26 09:30N 45°19' W 073°55'2 3.0
2017-Dec-26 09:00N 45°20' W 073°54'3 5.5
2017-Dec-26 08:30N 45°22' W 073°50'3 6.3
2017-Dec-26 08:01N 45°24' W 073°47'3 6.5
2017-Dec-26 07:30N 45°25' W 073°42'2 3.7
2017-Dec-26 07:00N 45°25' W 073°40'2 4.0
2017-Dec-26 06:30N 45°24' W 073°37'2 3.4
2017-Dec-26 06:00N 45°24' W 073°35'1 1.3
2017-Dec-26 05:30N 45°24' W 073°34'0 0.4
2017-Dec-26 05:00N 45°24' W 073°34'1 2.5
2017-Dec-26 04:30N 45°25' W 073°32'  
Track history (hours):
 
Tides and Currents Weather Stations Pressure Air Temp Water Temp Dewpoint Dewpoint Depression Visibility Wind Speed Wind Dir Waves Ship Positions

Csl Welland

Last reported at 2017-Dec-26 14:43 UTC. Time now 2018-Feb-21 11:23 UTC.
Position N 45°14' W 074°14'.
Warning: this ship's position is 56 days out of date.

Length 226 m.

MMSI: 316000808.

Date/timePositionNaut miles runAvg speedWind from/ knotsBaromVisibWave heightAir tempDewpointWater temp
2017-Dec-26 14:43N 45°14' W 074°14'0 0.0
2017-Dec-26 14:29N 45°14' W 074°14'2 2.4
2017-Dec-26 13:31N 45°14' W 074°11'0 9.0
2017-Dec-26 13:30N 45°14' W 074°11'4 6.4
2017-Dec-26 12:50N 45°13' W 074°05'2 6.7
2017-Dec-26 12:30N 45°14' W 074°02'4 8.1
2017-Dec-26 12:00N 45°16' W 073°57'2 4.7
2017-Dec-26 11:30N 45°18' W 073°56'0 0.2
2017-Dec-26 11:00N 45°18' W 073°56'1 1.0
2017-Dec-26 10:30N 45°19' W 073°55'0 0.7
2017-Dec-26 10:00N 45°19' W 073°55'0 0.4
2017-Dec-26 09:30N 45°19' W 073°55'2 3.0
2017-Dec-26 09:00N 45°20' W 073°54'3 5.5
2017-Dec-26 08:30N 45°22' W 073°50'3 6.3
2017-Dec-26 08:01N 45°24' W 073°47'3 6.5
2017-Dec-26 07:30N 45°25' W 073°42'2 3.7
2017-Dec-26 07:00N 45°25' W 073°40'2 4.0
2017-Dec-26 06:30N 45°24' W 073°37'2 3.4
2017-Dec-26 06:00N 45°24' W 073°35'1 1.3
2017-Dec-26 05:30N 45°24' W 073°34'0 0.4
2017-Dec-26 05:00N 45°24' W 073°34'1 2.5
2017-Dec-26 04:30N 45°25' W 073°32'  

Dump ship's entire track history